sensor_id;sensor_type;location;lat;lon;timestamp;temperature;humidity
20744;DHT22;56303;52.160;-0.428;2023-05-10T00:00:20;13.40;99.90
20744;DHT22;56303;52.160;-0.428;2023-05-10T00:02:49;13.40;99.90
20744;DHT22;56303;52.160;-0.428;2023-05-10T00:05:16;13.50;99.90
20744;DHT22;56303;52.160;-0.428;2023-05-10T00:07:43;13.40;99.90
20744;DHT22;56303;52.160;-0.428;2023-05-10T00:10:12;13.40;99.90
20744;DHT22;56303;52.160;-0.428;2023-05-10T00:12:40;13.30;99.90
20744;DHT22;56303;52.160;-0.428;2023-05-10T00:15:07;13.50;99.90
20744;DHT22;56303;52.160;-0.428;2023-05-10T00:17:34;12.50;99.90
20744;DHT22;56303;52.160;-0.428;2023-05-10T00:20:01;13.30;99.90
20744;DHT22;56303;52.160;-0.428;2023-05-10T00:22:28;13.30;99.90
20744;DHT22;56303;52.160;-0.428;2023-05-10T00:24:55;13.40;99.90
20744;DHT22;56303;52.160;-0.428;2023-05-10T00:27:22;13.70;99.90
20744;DHT22;56303;52.160;-0.428;2023-05-10T00:29:49;13.50;99.90
20744;DHT22;56303;52.160;-0.428;2023-05-10T00:32:16;13.50;99.90
20744;DHT22;56303;52.160;-0.428;2023-05-10T00:34:43;13.50;99.90
20744;DHT22;56303;52.160;-0.428;2023-05-10T00:37:10;13.50;99.90
20744;DHT22;56303;52.160;-0.428;2023-05-10T00:39:36;13.50;99.90
20744;DHT22;56303;52.160;-0.428;2023-05-10T00:42:03;13.50;99.90
20744;DHT22;56303;52.160;-0.428;2023-05-10T00:44:31;13.40;99.90
20744;DHT22;56303;52.160;-0.428;2023-05-10T00:46:58;13.50;99.90
20744;DHT22;56303;52.160;-0.428;2023-05-10T00:49:25;13.40;99.90
20744;DHT22;56303;52.160;-0.428;2023-05-10T00:51:52;13.50;99.90
20744;DHT22;56303;52.160;-0.428;2023-05-10T00:54:20;13.40;99.90
20744;DHT22;56303;52.160;-0.428;2023-05-10T00:56:47;13.30;99.90
20744;DHT22;56303;52.160;-0.428;2023-05-10T00:59:16;13.10;99.90
20744;DHT22;56303;52.160;-0.428;2023-05-10T01:01:47;13.20;99.90
20744;DHT22;56303;52.160;-0.428;2023-05-10T01:04:15;13.10;99.90
20744;DHT22;56303;52.160;-0.428;2023-05-10T01:06:42;13.10;99.90
20744;DHT22;56303;52.160;-0.428;2023-05-10T01:09:10;13.20;99.90
20744;DHT22;56303;52.160;-0.428;2023-05-10T01:11:38;13.00;99.90
20744;DHT22;56303;52.160;-0.428;2023-05-10T01:14:06;12.80;99.90
20744;DHT22;56303;52.160;-0.428;2023-05-10T01:16:37;12.70;99.90
20744;DHT22;56303;52.160;-0.428;2023-05-10T01:19:19;12.70;99.90
20744;DHT22;56303;52.160;-0.428;2023-05-10T01:28:13;14.40;99.90
20744;DHT22;56303;52.160;-0.428;2023-05-10T01:33:43;12.60;99.90
20744;DHT22;56303;52.160;-0.428;2023-05-10T01:36:30;12.80;99.90
20744;DHT22;56303;52.160;-0.428;2023-05-10T01:39:10;13.00;99.90
20744;DHT22;56303;52.160;-0.428;2023-05-10T01:41:40;12.90;99.90
20744;DHT22;56303;52.160;-0.428;2023-05-10T01:47:15;12.70;99.90
20744;DHT22;56303;52.160;-0.428;2023-05-10T01:49:55;12.60;99.90
20744;DHT22;56303;52.160;-0.428;2023-05-10T01:52:38;12.70;99.90
20744;DHT22;56303;52.160;-0.428;2023-05-10T01:55:14;12.60;99.90
20744;DHT22;56303;52.160;-0.428;2023-05-10T01:57:44;12.60;99.90
20744;DHT22;56303;52.160;-0.428;2023-05-10T02:00:12;12.40;99.90
20744;DHT22;56303;52.160;-0.428;2023-05-10T02:02:42;12.30;99.90
20744;DHT22;56303;52.160;-0.428;2023-05-10T02:05:12;12.00;99.90
20744;DHT22;56303;52.160;-0.428;2023-05-10T02:07:41;12.10;99.90
20744;DHT22;56303;52.160;-0.428;2023-05-10T02:10:09;12.00;99.90
20744;DHT22;56303;52.160;-0.428;2023-05-10T02:12:41;11.90;99.90
20744;DHT22;56303;52.160;-0.428;2023-05-10T02:15:09;11.50;99.90
20744;DHT22;56303;52.160;-0.428;2023-05-10T02:17:37;11.30;99.90
20744;DHT22;56303;52.160;-0.428;2023-05-10T02:20:06;11.30;99.90
20744;DHT22;56303;52.160;-0.428;2023-05-10T02:22:35;11.20;99.90
20744;DHT22;56303;52.160;-0.428;2023-05-10T02:25:03;11.20;99.90
20744;DHT22;56303;52.160;-0.428;2023-05-10T02:27:30;11.20;99.90
20744;DHT22;56303;52.160;-0.428;2023-05-10T02:29:58;11.00;99.90
20744;DHT22;56303;52.160;-0.428;2023-05-10T02:32:27;11.10;99.90
20744;DHT22;56303;52.160;-0.428;2023-05-10T02:34:54;10.90;99.90
20744;DHT22;56303;52.160;-0.428;2023-05-10T02:37:22;11.10;99.90
20744;DHT22;56303;52.160;-0.428;2023-05-10T02:39:52;11.20;99.90
20744;DHT22;56303;52.160;-0.428;2023-05-10T02:42:25;11.30;99.90
20744;DHT22;56303;52.160;-0.428;2023-05-10T02:45:07;11.00;99.90
20744;DHT22;56303;52.160;-0.428;2023-05-10T02:47:36;11.00;99.90
20744;DHT22;56303;52.160;-0.428;2023-05-10T02:50:03;11.00;99.90
20744;DHT22;56303;52.160;-0.428;2023-05-10T02:52:42;11.20;99.90
20744;DHT22;56303;52.160;-0.428;2023-05-10T02:55:14;11.20;99.90
20744;DHT22;56303;52.160;-0.428;2023-05-10T02:57:52;11.50;99.90
20744;DHT22;56303;52.160;-0.428;2023-05-10T03:00:24;11.50;99.90
20744;DHT22;56303;52.160;-0.428;2023-05-10T03:02:52;11.70;99.90
20744;DHT22;56303;52.160;-0.428;2023-05-10T03:05:19;11.60;99.90
20744;DHT22;56303;52.160;-0.428;2023-05-10T03:07:46;11.60;99.90
20744;DHT22;56303;52.160;-0.428;2023-05-10T03:10:13;11.40;99.90
20744;DHT22;56303;52.160;-0.428;2023-05-10T03:13:16;11.50;99.90
20744;DHT22;56303;52.160;-0.428;2023-05-10T03:21:28;11.50;99.90
20744;DHT22;56303;52.160;-0.428;2023-05-10T03:23:59;11.50;99.90
20744;DHT22;56303;52.160;-0.428;2023-05-10T03:26:29;11.50;99.90
20744;DHT22;56303;52.160;-0.428;2023-05-10T03:28:57;11.60;99.90
20744;DHT22;56303;52.160;-0.428;2023-05-10T03:31:25;11.60;99.90
20744;DHT22;56303;52.160;-0.428;2023-05-10T03:33:52;11.30;99.90
20744;DHT22;56303;52.160;-0.428;2023-05-10T03:36:19;11.10;99.90
20744;DHT22;56303;52.160;-0.428;2023-05-10T03:38:46;10.90;99.90
20744;DHT22;56303;52.160;-0.428;2023-05-10T03:41:13;10.90;99.90
20744;DHT22;56303;52.160;-0.428;2023-05-10T03:43:40;11.00;99.90
20744;DHT22;56303;52.160;-0.428;2023-05-10T03:46:08;11.10;99.90
20744;DHT22;56303;52.160;-0.428;2023-05-10T03:48:34;11.20;99.90
20744;DHT22;56303;52.160;-0.428;2023-05-10T03:51:01;11.20;99.90
20744;DHT22;56303;52.160;-0.428;2023-05-10T03:53:28;11.00;99.90
20744;DHT22;56303;52.160;-0.428;2023-05-10T03:55:55;11.10;99.90
20744;DHT22;56303;52.160;-0.428;2023-05-10T03:58:22;11.30;99.90
20744;DHT22;56303;52.160;-0.428;2023-05-10T04:00:49;11.20;99.90
20744;DHT22;56303;52.160;-0.428;2023-05-10T04:03:16;10.90;99.90
20744;DHT22;56303;52.160;-0.428;2023-05-10T04:05:43;10.80;99.90
20744;DHT22;56303;52.160;-0.428;2023-05-10T04:08:10;11.00;99.90
20744;DHT22;56303;52.160;-0.428;2023-05-10T04:10:37;11.10;99.90
20744;DHT22;56303;52.160;-0.428;2023-05-10T04:13:03;11.10;99.90
20744;DHT22;56303;52.160;-0.428;2023-05-10T04:15:31;11.10;99.90
20744;DHT22;56303;52.160;-0.428;2023-05-10T04:17:57;11.10;99.90
20744;DHT22;56303;52.160;-0.428;2023-05-10T04:20:24;11.10;99.90
20744;DHT22;56303;52.160;-0.428;2023-05-10T04:22:51;11.00;99.90
20744;DHT22;56303;52.160;-0.428;2023-05-10T04:25:18;10.90;99.90
20744;DHT22;56303;52.160;-0.428;2023-05-10T04:27:45;10.70;99.90
20744;DHT22;56303;52.160;-0.428;2023-05-10T04:30:12;11.20;99.90
20744;DHT22;56303;52.160;-0.428;2023-05-10T04:32:38;10.60;99.90
20744;DHT22;56303;52.160;-0.428;2023-05-10T04:35:05;10.80;99.90
20744;DHT22;56303;52.160;-0.428;2023-05-10T04:37:32;10.80;99.90
20744;DHT22;56303;52.160;-0.428;2023-05-10T04:39:59;10.80;99.90
20744;DHT22;56303;52.160;-0.428;2023-05-10T04:42:26;10.60;99.90
20744;DHT22;56303;52.160;-0.428;2023-05-10T04:44:53;10.30;99.90
20744;DHT22;56303;52.160;-0.428;2023-05-10T04:47:20;10.50;99.90
20744;DHT22;56303;52.160;-0.428;2023-05-10T04:49:47;10.30;99.90
20744;DHT22;56303;52.160;-0.428;2023-05-10T04:52:14;10.30;99.90
20744;DHT22;56303;52.160;-0.428;2023-05-10T04:54:42;10.40;99.90
20744;DHT22;56303;52.160;-0.428;2023-05-10T04:57:09;10.30;99.90
20744;DHT22;56303;52.160;-0.428;2023-05-10T04:59:36;10.60;99.90
20744;DHT22;56303;52.160;-0.428;2023-05-10T05:02:04;10.60;99.90
20744;DHT22;56303;52.160;-0.428;2023-05-10T05:04:31;10.70;99.90
20744;DHT22;56303;52.160;-0.428;2023-05-10T05:06:58;11.90;99.90
20744;DHT22;56303;52.160;-0.428;2023-05-10T05:09:25;10.80;99.90
20744;DHT22;56303;52.160;-0.428;2023-05-10T05:11:52;10.80;99.90
20744;DHT22;56303;52.160;-0.428;2023-05-10T05:14:19;10.90;99.90
20744;DHT22;56303;52.160;-0.428;2023-05-10T05:16:47;10.80;99.90
20744;DHT22;56303;52.160;-0.428;2023-05-10T05:19:14;10.80;99.90
20744;DHT22;56303;52.160;-0.428;2023-05-10T05:21:41;10.90;99.90
20744;DHT22;56303;52.160;-0.428;2023-05-10T05:24:07;10.90;99.90
20744;DHT22;56303;52.160;-0.428;2023-05-10T05:26:34;11.00;99.90
20744;DHT22;56303;52.160;-0.428;2023-05-10T05:29:01;11.20;99.90
20744;DHT22;56303;52.160;-0.428;2023-05-10T05:31:28;11.20;99.90
20744;DHT22;56303;52.160;-0.428;2023-05-10T05:33:55;11.30;99.90
20744;DHT22;56303;52.160;-0.428;2023-05-10T05:36:22;11.30;99.90
20744;DHT22;56303;52.160;-0.428;2023-05-10T05:38:49;11.50;99.90
20744;DHT22;56303;52.160;-0.428;2023-05-10T05:41:16;11.40;99.90
20744;DHT22;56303;52.160;-0.428;2023-05-10T05:43:42;11.40;99.90
20744;DHT22;56303;52.160;-0.428;2023-05-10T05:46:09;11.50;99.90
20744;DHT22;56303;52.160;-0.428;2023-05-10T05:48:36;11.60;99.90
20744;DHT22;56303;52.160;-0.428;2023-05-10T05:51:03;11.50;99.90
20744;DHT22;56303;52.160;-0.428;2023-05-10T05:53:32;11.40;99.90
20744;DHT22;56303;52.160;-0.428;2023-05-10T05:55:59;11.00;99.90
20744;DHT22;56303;52.160;-0.428;2023-05-10T05:58:26;11.30;99.90
20744;DHT22;56303;52.160;-0.428;2023-05-10T06:00:53;11.10;99.90
20744;DHT22;56303;52.160;-0.428;2023-05-10T06:03:21;11.20;99.90
20744;DHT22;56303;52.160;-0.428;2023-05-10T06:05:48;11.40;99.90
20744;DHT22;56303;52.160;-0.428;2023-05-10T06:08:15;11.20;99.90
20744;DHT22;56303;52.160;-0.428;2023-05-10T06:10:41;11.40;99.90
20744;DHT22;56303;52.160;-0.428;2023-05-10T06:13:08;11.50;99.90
20744;DHT22;56303;52.160;-0.428;2023-05-10T06:15:35;11.60;99.90
20744;DHT22;56303;52.160;-0.428;2023-05-10T06:18:02;11.50;99.90
20744;DHT22;56303;52.160;-0.428;2023-05-10T06:20:29;11.40;99.90
20744;DHT22;56303;52.160;-0.428;2023-05-10T06:22:58;11.50;99.90
20744;DHT22;56303;52.160;-0.428;2023-05-10T06:25:25;11.40;99.90
20744;DHT22;56303;52.160;-0.428;2023-05-10T06:27:52;11.50;99.90
20744;DHT22;56303;52.160;-0.428;2023-05-10T06:30:25;11.50;99.90
20744;DHT22;56303;52.160;-0.428;2023-05-10T06:32:55;11.60;99.90
20744;DHT22;56303;52.160;-0.428;2023-05-10T06:35:22;11.60;99.90
20744;DHT22;56303;52.160;-0.428;2023-05-10T06:37:50;11.60;99.90
20744;DHT22;56303;52.160;-0.428;2023-05-10T06:40:17;11.60;99.90
20744;DHT22;56303;52.160;-0.428;2023-05-10T06:42:45;11.90;99.90
20744;DHT22;56303;52.160;-0.428;2023-05-10T06:45:13;11.80;99.90
20744;DHT22;56303;52.160;-0.428;2023-05-10T06:47:41;11.60;99.90
20744;DHT22;56303;52.160;-0.428;2023-05-10T06:50:09;11.60;99.90
20744;DHT22;56303;52.160;-0.428;2023-05-10T06:52:36;11.80;99.90
20744;DHT22;56303;52.160;-0.428;2023-05-10T06:55:04;11.80;99.90
20744;DHT22;56303;52.160;-0.428;2023-05-10T06:57:31;12.00;99.90
20744;DHT22;56303;52.160;-0.428;2023-05-10T06:59:59;12.40;99.90
20744;DHT22;56303;52.160;-0.428;2023-05-10T07:02:26;12.40;99.90
20744;DHT22;56303;52.160;-0.428;2023-05-10T07:04:53;12.40;99.90
20744;DHT22;56303;52.160;-0.428;2023-05-10T07:07:20;12.40;99.90
20744;DHT22;56303;52.160;-0.428;2023-05-10T07:09:48;12.50;99.90
20744;DHT22;56303;52.160;-0.428;2023-05-10T07:12:16;12.60;99.90
20744;DHT22;56303;52.160;-0.428;2023-05-10T07:14:43;12.80;99.90
20744;DHT22;56303;52.160;-0.428;2023-05-10T07:17:10;12.70;99.90
20744;DHT22;56303;52.160;-0.428;2023-05-10T07:19:37;12.30;99.90
20744;DHT22;56303;52.160;-0.428;2023-05-10T07:22:03;12.50;99.90
20744;DHT22;56303;52.160;-0.428;2023-05-10T07:24:33;12.70;99.90
20744;DHT22;56303;52.160;-0.428;2023-05-10T07:27:00;12.60;99.90
20744;DHT22;56303;52.160;-0.428;2023-05-10T07:29:27;12.70;99.90
20744;DHT22;56303;52.160;-0.428;2023-05-10T07:31:55;12.80;99.90
20744;DHT22;56303;52.160;-0.428;2023-05-10T07:34:24;12.90;99.90
20744;DHT22;56303;52.160;-0.428;2023-05-10T07:36:52;13.00;99.90
20744;DHT22;56303;52.160;-0.428;2023-05-10T07:39:19;13.10;99.90
20744;DHT22;56303;52.160;-0.428;2023-05-10T07:41:54;13.10;99.90
20744;DHT22;56303;52.160;-0.428;2023-05-10T07:44:21;13.30;99.90
20744;DHT22;56303;52.160;-0.428;2023-05-10T07:46:48;13.50;99.90
20744;DHT22;56303;52.160;-0.428;2023-05-10T07:49:15;13.70;99.90
20744;DHT22;56303;52.160;-0.428;2023-05-10T07:51:42;13.70;99.90
20744;DHT22;56303;52.160;-0.428;2023-05-10T07:54:09;12.10;99.90
20744;DHT22;56303;52.160;-0.428;2023-05-10T07:56:36;13.70;99.90
20744;DHT22;56303;52.160;-0.428;2023-05-10T07:59:03;13.90;99.90
20744;DHT22;56303;52.160;-0.428;2023-05-10T08:01:34;13.80;99.90
20744;DHT22;56303;52.160;-0.428;2023-05-10T08:04:01;13.80;99.90
20744;DHT22;56303;52.160;-0.428;2023-05-10T08:06:28;14.10;99.90
20744;DHT22;56303;52.160;-0.428;2023-05-10T08:08:57;14.10;99.90
20744;DHT22;56303;52.160;-0.428;2023-05-10T08:11:24;14.30;99.90
20744;DHT22;56303;52.160;-0.428;2023-05-10T08:13:52;14.30;99.90
20744;DHT22;56303;52.160;-0.428;2023-05-10T08:16:20;14.60;99.90
20744;DHT22;56303;52.160;-0.428;2023-05-10T08:18:47;14.70;99.90
20744;DHT22;56303;52.160;-0.428;2023-05-10T08:21:14;14.60;99.90
20744;DHT22;56303;52.160;-0.428;2023-05-10T08:23:42;14.80;99.90
20744;DHT22;56303;52.160;-0.428;2023-05-10T08:26:10;14.90;99.90
20744;DHT22;56303;52.160;-0.428;2023-05-10T08:28:38;15.00;99.90
20744;DHT22;56303;52.160;-0.428;2023-05-10T08:31:05;15.00;99.90
20744;DHT22;56303;52.160;-0.428;2023-05-10T08:33:32;15.00;99.90
20744;DHT22;56303;52.160;-0.428;2023-05-10T08:35:59;15.00;99.90
20744;DHT22;56303;52.160;-0.428;2023-05-10T08:38:26;15.00;99.90
20744;DHT22;56303;52.160;-0.428;2023-05-10T08:40:54;15.20;99.90
20744;DHT22;56303;52.160;-0.428;2023-05-10T08:43:29;15.30;99.90
20744;DHT22;56303;52.160;-0.428;2023-05-10T08:46:00;15.50;99.90
20744;DHT22;56303;52.160;-0.428;2023-05-10T08:48:29;15.50;99.90
20744;DHT22;56303;52.160;-0.428;2023-05-10T08:50:59;15.60;99.90
20744;DHT22;56303;52.160;-0.428;2023-05-10T08:53:28;15.60;99.90
20744;DHT22;56303;52.160;-0.428;2023-05-10T08:55:58;15.70;99.90
20744;DHT22;56303;52.160;-0.428;2023-05-10T08:58:25;15.80;99.90
20744;DHT22;56303;52.160;-0.428;2023-05-10T09:00:52;15.90;99.90
20744;DHT22;56303;52.160;-0.428;2023-05-10T09:03:20;16.10;99.90
20744;DHT22;56303;52.160;-0.428;2023-05-10T09:05:48;16.50;99.90
20744;DHT22;56303;52.160;-0.428;2023-05-10T09:08:15;16.70;99.90
20744;DHT22;56303;52.160;-0.428;2023-05-10T09:10:44;16.70;99.90
20744;DHT22;56303;52.160;-0.428;2023-05-10T09:13:14;16.70;99.90
20744;DHT22;56303;52.160;-0.428;2023-05-10T09:15:44;16.90;99.90
20744;DHT22;56303;52.160;-0.428;2023-05-10T09:18:12;17.00;99.90
20744;DHT22;56303;52.160;-0.428;2023-05-10T09:20:39;17.30;99.90
20744;DHT22;56303;52.160;-0.428;2023-05-10T09:23:06;17.40;99.90
20744;DHT22;56303;52.160;-0.428;2023-05-10T09:25:34;17.10;99.90
20744;DHT22;56303;52.160;-0.428;2023-05-10T09:28:01;16.90;99.90
20744;DHT22;56303;52.160;-0.428;2023-05-10T09:30:30;17.20;99.90
20744;DHT22;56303;52.160;-0.428;2023-05-10T09:32:58;17.50;99.90
20744;DHT22;56303;52.160;-0.428;2023-05-10T09:35:27;17.70;99.90
20744;DHT22;56303;52.160;-0.428;2023-05-10T09:37:57;17.70;99.90
20744;DHT22;56303;52.160;-0.428;2023-05-10T09:40:26;17.80;99.90
20744;DHT22;56303;52.160;-0.428;2023-05-10T09:45:29;17.90;99.90
20744;DHT22;56303;52.160;-0.428;2023-05-10T09:47:57;18.10;99.90
20744;DHT22;56303;52.160;-0.428;2023-05-10T09:50:26;18.30;99.90
20744;DHT22;56303;52.160;-0.428;2023-05-10T09:53:00;18.10;99.90
20744;DHT22;56303;52.160;-0.428;2023-05-10T09:55:39;18.40;99.90
20744;DHT22;56303;52.160;-0.428;2023-05-10T09:58:07;18.10;99.90
20744;DHT22;56303;52.160;-0.428;2023-05-10T10:00:42;17.90;99.90
20744;DHT22;56303;52.160;-0.428;2023-05-10T10:03:19;18.10;99.90
20744;DHT22;56303;52.160;-0.428;2023-05-10T10:05:47;18.50;99.90
20744;DHT22;56303;52.160;-0.428;2023-05-10T10:08:15;18.90;99.90
20744;DHT22;56303;52.160;-0.428;2023-05-10T10:10:43;19.30;99.90
20744;DHT22;56303;52.160;-0.428;2023-05-10T10:13:13;19.20;99.90
20744;DHT22;56303;52.160;-0.428;2023-05-10T10:15:42;19.10;99.90
20744;DHT22;56303;52.160;-0.428;2023-05-10T10:18:13;19.50;99.90
20744;DHT22;56303;52.160;-0.428;2023-05-10T10:20:41;19.40;99.90
20744;DHT22;56303;52.160;-0.428;2023-05-10T10:23:08;19.50;99.90
20744;DHT22;56303;52.160;-0.428;2023-05-10T10:25:36;18.80;99.90
20744;DHT22;56303;52.160;-0.428;2023-05-10T10:30:51;17.20;99.90
20744;DHT22;56303;52.160;-0.428;2023-05-10T10:36:14;17.40;99.90
20744;DHT22;56303;52.160;-0.428;2023-05-10T10:41:48;17.80;99.90
20744;DHT22;56303;52.160;-0.428;2023-05-10T10:44:47;18.00;99.90
20744;DHT22;56303;52.160;-0.428;2023-05-10T10:49:52;18.50;99.90
20744;DHT22;56303;52.160;-0.428;2023-05-10T10:52:28;19.10;99.90
20744;DHT22;56303;52.160;-0.428;2023-05-10T10:55:11;19.50;99.90
20744;DHT22;56303;52.160;-0.428;2023-05-10T11:00:29;19.90;99.90
20744;DHT22;56303;52.160;-0.428;2023-05-10T11:05:48;19.20;99.90
20744;DHT22;56303;52.160;-0.428;2023-05-10T11:08:28;19.30;99.90
20744;DHT22;56303;52.160;-0.428;2023-05-10T11:13:44;19.30;99.90
20744;DHT22;56303;52.160;-0.428;2023-05-10T11:16:23;19.30;99.90
20744;DHT22;56303;52.160;-0.428;2023-05-10T11:18:55;19.20;99.90
20744;DHT22;56303;52.160;-0.428;2023-05-10T11:21:23;18.90;99.90
20744;DHT22;56303;52.160;-0.428;2023-05-10T11:23:54;18.70;99.90
20744;DHT22;56303;52.160;-0.428;2023-05-10T11:26:44;18.90;99.90
20744;DHT22;56303;52.160;-0.428;2023-05-10T11:29:13;19.50;99.90
20744;DHT22;56303;52.160;-0.428;2023-05-10T11:31:44;20.50;99.90
20744;DHT22;56303;52.160;-0.428;2023-05-10T11:34:24;19.80;99.90
20744;DHT22;56303;52.160;-0.428;2023-05-10T11:36:53;19.70;99.90
20744;DHT22;56303;52.160;-0.428;2023-05-10T11:39:21;19.50;99.90
20744;DHT22;56303;52.160;-0.428;2023-05-10T11:41:49;19.90;99.90
20744;DHT22;56303;52.160;-0.428;2023-05-10T11:44:16;19.70;99.90
20744;DHT22;56303;52.160;-0.428;2023-05-10T11:46:43;19.80;99.90
20744;DHT22;56303;52.160;-0.428;2023-05-10T11:49:11;19.90;99.90
20744;DHT22;56303;52.160;-0.428;2023-05-10T11:51:38;19.60;99.90
20744;DHT22;56303;52.160;-0.428;2023-05-10T11:54:07;18.80;99.90
20744;DHT22;56303;52.160;-0.428;2023-05-10T11:56:39;18.20;99.90
20744;DHT22;56303;52.160;-0.428;2023-05-10T11:59:06;17.60;99.90
20744;DHT22;56303;52.160;-0.428;2023-05-10T12:01:34;17.50;99.90
20744;DHT22;56303;52.160;-0.428;2023-05-10T12:04:02;17.60;99.90
20744;DHT22;56303;52.160;-0.428;2023-05-10T12:06:37;18.00;99.90
20744;DHT22;56303;52.160;-0.428;2023-05-10T12:09:07;18.90;99.90
20744;DHT22;56303;52.160;-0.428;2023-05-10T12:11:38;19.80;99.90
20744;DHT22;56303;52.160;-0.428;2023-05-10T12:14:09;20.20;99.90
20744;DHT22;56303;52.160;-0.428;2023-05-10T12:16:37;20.00;99.90
20744;DHT22;56303;52.160;-0.428;2023-05-10T12:19:03;19.90;99.90
20744;DHT22;56303;52.160;-0.428;2023-05-10T12:21:32;20.20;99.90
20744;DHT22;56303;52.160;-0.428;2023-05-10T12:24:02;21.30;99.90
20744;DHT22;56303;52.160;-0.428;2023-05-10T12:26:32;20.40;99.90
20744;DHT22;56303;52.160;-0.428;2023-05-10T12:29:18;20.20;99.90
20744;DHT22;56303;52.160;-0.428;2023-05-10T12:31:52;20.30;99.90
20744;DHT22;56303;52.160;-0.428;2023-05-10T12:34:35;19.80;99.90
20744;DHT22;56303;52.160;-0.428;2023-05-10T12:37:03;19.40;99.90
20744;DHT22;56303;52.160;-0.428;2023-05-10T12:39:44;20.00;99.90
20744;DHT22;56303;52.160;-0.428;2023-05-10T12:42:12;19.60;99.90
20744;DHT22;56303;52.160;-0.428;2023-05-10T12:44:39;19.20;99.90
20744;DHT22;56303;52.160;-0.428;2023-05-10T12:47:06;19.50;99.90
20744;DHT22;56303;52.160;-0.428;2023-05-10T12:49:34;19.70;99.90
20744;DHT22;56303;52.160;-0.428;2023-05-10T12:52:01;19.60;99.90
20744;DHT22;56303;52.160;-0.428;2023-05-10T12:54:28;19.80;99.90
20744;DHT22;56303;52.160;-0.428;2023-05-10T12:56:55;20.10;99.90
20744;DHT22;56303;52.160;-0.428;2023-05-10T12:59:21;19.60;99.90
20744;DHT22;56303;52.160;-0.428;2023-05-10T13:01:49;19.50;99.90
20744;DHT22;56303;52.160;-0.428;2023-05-10T13:04:16;19.20;99.90
20744;DHT22;56303;52.160;-0.428;2023-05-10T13:06:43;19.80;99.90
20744;DHT22;56303;52.160;-0.428;2023-05-10T13:09:10;20.10;99.90
20744;DHT22;56303;52.160;-0.428;2023-05-10T13:11:37;20.20;99.90
20744;DHT22;56303;52.160;-0.428;2023-05-10T13:14:04;20.20;99.90
20744;DHT22;56303;52.160;-0.428;2023-05-10T13:16:34;19.90;99.90
20744;DHT22;56303;52.160;-0.428;2023-05-10T13:19:07;19.50;99.90
20744;DHT22;56303;52.160;-0.428;2023-05-10T13:21:34;19.10;99.90
20744;DHT22;56303;52.160;-0.428;2023-05-10T13:24:01;19.20;99.90
20744;DHT22;56303;52.160;-0.428;2023-05-10T13:26:28;19.20;99.90
20744;DHT22;56303;52.160;-0.428;2023-05-10T13:28:55;19.50;99.90
20744;DHT22;56303;52.160;-0.428;2023-05-10T13:31:22;19.70;99.90
20744;DHT22;56303;52.160;-0.428;2023-05-10T13:33:49;19.60;99.90
20744;DHT22;56303;52.160;-0.428;2023-05-10T13:36:16;19.70;99.90
20744;DHT22;56303;52.160;-0.428;2023-05-10T13:38:42;20.30;99.90
20744;DHT22;56303;52.160;-0.428;2023-05-10T13:41:10;20.70;99.90
20744;DHT22;56303;52.160;-0.428;2023-05-10T13:43:37;20.80;99.90
20744;DHT22;56303;52.160;-0.428;2023-05-10T13:46:04;20.40;99.90
20744;DHT22;56303;52.160;-0.428;2023-05-10T13:48:31;21.30;99.90
20744;DHT22;56303;52.160;-0.428;2023-05-10T13:50:58;22.20;99.90
20744;DHT22;56303;52.160;-0.428;2023-05-10T13:53:25;23.60;99.90
20744;DHT22;56303;52.160;-0.428;2023-05-10T13:55:52;23.00;99.90
20744;DHT22;56303;52.160;-0.428;2023-05-10T13:58:19;22.50;99.90
20744;DHT22;56303;52.160;-0.428;2023-05-10T14:00:45;21.60;99.90
20744;DHT22;56303;52.160;-0.428;2023-05-10T14:03:12;23.50;99.90
20744;DHT22;56303;52.160;-0.428;2023-05-10T14:05:39;23.80;99.90
20744;DHT22;56303;52.160;-0.428;2023-05-10T14:08:06;23.90;99.90
20744;DHT22;56303;52.160;-0.428;2023-05-10T14:10:34;23.70;99.90
20744;DHT22;56303;52.160;-0.428;2023-05-10T14:13:00;22.70;99.90
20744;DHT22;56303;52.160;-0.428;2023-05-10T14:15:27;22.30;99.90
20744;DHT22;56303;52.160;-0.428;2023-05-10T14:17:54;22.00;99.90
20744;DHT22;56303;52.160;-0.428;2023-05-10T14:20:21;21.50;99.90
20744;DHT22;56303;52.160;-0.428;2023-05-10T14:22:48;20.90;99.90
20744;DHT22;56303;52.160;-0.428;2023-05-10T14:25:15;20.90;99.90
20744;DHT22;56303;52.160;-0.428;2023-05-10T14:27:42;20.50;99.90
20744;DHT22;56303;52.160;-0.428;2023-05-10T14:30:09;20.60;99.90
20744;DHT22;56303;52.160;-0.428;2023-05-10T14:32:36;21.30;99.90
20744;DHT22;56303;52.160;-0.428;2023-05-10T14:35:04;20.90;99.90
20744;DHT22;56303;52.160;-0.428;2023-05-10T14:37:33;20.10;99.90
20744;DHT22;56303;52.160;-0.428;2023-05-10T14:40:00;19.90;99.90
20744;DHT22;56303;52.160;-0.428;2023-05-10T14:42:27;19.60;99.90
20744;DHT22;56303;52.160;-0.428;2023-05-10T14:44:55;19.60;99.90
20744;DHT22;56303;52.160;-0.428;2023-05-10T14:47:22;20.00;99.90
20744;DHT22;56303;52.160;-0.428;2023-05-10T14:49:50;19.80;99.90
20744;DHT22;56303;52.160;-0.428;2023-05-10T14:52:17;19.90;99.90
20744;DHT22;56303;52.160;-0.428;2023-05-10T14:54:44;20.20;99.90
20744;DHT22;56303;52.160;-0.428;2023-05-10T14:57:11;19.80;99.90
20744;DHT22;56303;52.160;-0.428;2023-05-10T14:59:37;20.60;99.90
20744;DHT22;56303;52.160;-0.428;2023-05-10T15:02:05;21.90;99.90
20744;DHT22;56303;52.160;-0.428;2023-05-10T15:04:35;22.90;99.90
20744;DHT22;56303;52.160;-0.428;2023-05-10T15:07:02;23.60;99.90
20744;DHT22;56303;52.160;-0.428;2023-05-10T15:09:29;21.90;99.90
20744;DHT22;56303;52.160;-0.428;2023-05-10T15:11:56;21.80;99.90
20744;DHT22;56303;52.160;-0.428;2023-05-10T15:14:23;21.40;99.90
20744;DHT22;56303;52.160;-0.428;2023-05-10T15:16:50;20.30;99.90
20744;DHT22;56303;52.160;-0.428;2023-05-10T15:19:17;19.20;99.90
20744;DHT22;56303;52.160;-0.428;2023-05-10T15:21:43;18.40;99.90
20744;DHT22;56303;52.160;-0.428;2023-05-10T15:24:11;18.50;99.90
20744;DHT22;56303;52.160;-0.428;2023-05-10T15:26:38;17.60;99.90
20744;DHT22;56303;52.160;-0.428;2023-05-10T15:29:05;17.20;99.90
20744;DHT22;56303;52.160;-0.428;2023-05-10T15:31:32;16.50;99.90
20744;DHT22;56303;52.160;-0.428;2023-05-10T15:34:01;15.90;99.90
20744;DHT22;56303;52.160;-0.428;2023-05-10T15:36:28;15.70;99.90
20744;DHT22;56303;52.160;-0.428;2023-05-10T15:38:55;15.70;99.90
20744;DHT22;56303;52.160;-0.428;2023-05-10T15:41:22;15.90;99.90
20744;DHT22;56303;52.160;-0.428;2023-05-10T15:43:50;15.90;99.90
20744;DHT22;56303;52.160;-0.428;2023-05-10T15:46:16;16.30;99.90
20744;DHT22;56303;52.160;-0.428;2023-05-10T15:48:43;15.80;99.90
20744;DHT22;56303;52.160;-0.428;2023-05-10T15:51:10;15.70;99.90
20744;DHT22;56303;52.160;-0.428;2023-05-10T15:53:37;16.00;99.90
20744;DHT22;56303;52.160;-0.428;2023-05-10T15:56:09;16.00;99.90
20744;DHT22;56303;52.160;-0.428;2023-05-10T15:58:40;15.80;99.90
20744;DHT22;56303;52.160;-0.428;2023-05-10T16:01:07;15.90;99.90
20744;DHT22;56303;52.160;-0.428;2023-05-10T16:03:34;15.60;99.90